createdAt,value
2018-01-31T01:52:41.679Z,7.36
2018-01-31T01:53:41.281Z,7.4
2018-01-31T01:54:41.436Z,7.39
2018-01-31T01:55:40.145Z,7.4
2018-01-31T01:56:41.599Z,7.39
2018-01-31T01:57:40.725Z,7.41
2018-01-31T01:58:41.179Z,7.41
2018-01-31T01:59:41.271Z,7.39
2018-01-31T02:00:42.634Z,7.39
2018-01-31T02:01:40.515Z,7.4
2018-01-31T02:02:40.882Z,7.43
2018-01-31T02:03:41.953Z,7.38
2018-01-31T02:04:40.384Z,7.44
2018-01-31T02:05:41.084Z,7.41
2018-01-31T02:06:40.949Z,7.43
2018-01-31T02:07:41.071Z,7.4
2018-01-31T02:08:42.153Z,7.38
2018-01-31T02:09:43.980Z,7.42
2018-01-31T02:10:40.516Z,7.42
2018-01-31T02:11:40.366Z,7.42
2018-01-31T02:12:40.692Z,7.42
2018-01-31T02:13:40.299Z,7.43
2018-01-31T02:14:41.557Z,7.45
2018-01-31T02:15:40.586Z,7.43
2018-01-31T02:16:40.243Z,7.4
2018-01-31T02:17:41.787Z,7.4
2018-01-31T02:18:44.158Z,7.43
2018-01-31T02:19:43.456Z,7.44
2018-01-31T02:20:40.991Z,7.44
2018-01-31T02:21:41.136Z,7.43
2018-01-31T02:22:41.240Z,7.44
2018-01-31T02:23:41.838Z,7.45
2018-01-31T02:24:40.050Z,7.44
2018-01-31T02:25:42.170Z,7.43
2018-01-31T02:26:41.650Z,7.45
2018-01-31T02:27:41.622Z,7.42
2018-01-31T02:28:40.817Z,7.47
2018-01-31T02:29:41.301Z,7.43
2018-01-31T02:30:40.807Z,7.45
2018-01-31T02:31:42.134Z,7.46
2018-01-31T02:32:40.229Z,7.44
2018-01-31T02:33:40.487Z,7.44
2018-01-31T02:34:40.721Z,7.44
2018-01-31T02:35:40.550Z,7.44
2018-01-31T02:36:40.980Z,7.43
2018-01-31T02:37:41.374Z,7.46
2018-01-31T02:38:40.444Z,7.45
2018-01-31T02:39:40.817Z,7.46
2018-01-31T02:40:40.821Z,7.45
2018-01-31T02:41:41.783Z,7.43
2018-01-31T02:42:42.198Z,7.41
2018-01-31T02:43:41.016Z,7.44
2018-01-31T02:44:40.604Z,7.4
2018-01-31T02:45:41.004Z,7.42
2018-01-31T02:46:40.534Z,7.41
2018-01-31T02:47:40.287Z,7.4
2018-01-31T02:48:40.171Z,7.39
2018-01-31T02:49:40.476Z,7.42
2018-01-31T02:50:40.411Z,7.39
2018-01-31T02:51:40.940Z,7.4
2018-01-31T02:52:40.662Z,7.4
2018-01-31T02:53:42.675Z,7.41
2018-01-31T02:54:42.496Z,7.43
2018-01-31T02:55:40.383Z,7.4
2018-01-31T02:56:40.377Z,7.41
2018-01-31T02:57:40.574Z,7.39
2018-01-31T02:58:40.321Z,7.4
2018-01-31T02:59:41.615Z,7.41
2018-01-31T03:00:40.802Z,7.42
2018-01-31T03:01:41.024Z,7.45
2018-01-31T03:02:42.871Z,7.43
2018-01-31T03:03:43.191Z,7.46
2018-01-31T03:04:41.247Z,7.44
2018-01-31T03:05:40.944Z,7.43
2018-01-31T03:06:40.859Z,7.43
2018-01-31T03:07:41.785Z,7.45
2018-01-31T03:08:40.447Z,7.44
2018-01-31T03:09:41.147Z,7.46
2018-01-31T03:10:41.630Z,7.47
2018-01-31T03:11:40.899Z,7.44
2018-01-31T03:12:41.155Z,7.46
2018-01-31T03:13:41.799Z,7.47
2018-01-31T03:14:41.578Z,7.47
2018-01-31T03:15:41.586Z,7.47
2018-01-31T03:16:43.024Z,7.44
2018-01-31T03:17:40.638Z,7.42
2018-01-31T03:18:40.580Z,7.46
2018-01-31T03:19:41.622Z,7.47
2018-01-31T03:20:40.581Z,7.45
2018-01-31T03:21:41.085Z,7.46
2018-01-31T03:22:40.958Z,7.46
2018-01-31T03:23:40.912Z,7.45
2018-01-31T03:24:41.452Z,7.43
2018-01-31T03:25:40.602Z,7.45
2018-01-31T03:26:40.710Z,7.44
2018-01-31T03:27:40.512Z,7.46
2018-01-31T03:28:41.422Z,7.46
2018-01-31T03:29:40.413Z,7.46
2018-01-31T03:30:41.252Z,7.42
2018-01-31T03:31:43.913Z,7.43
2018-01-31T03:32:40.998Z,7.44
2018-01-31T03:33:40.383Z,7.43
2018-01-31T03:34:41.318Z,7.45
2018-01-31T03:35:41.009Z,7.43
2018-01-31T03:36:42.252Z,7.42
2018-01-31T03:37:41.132Z,7.43
2018-01-31T03:38:46.758Z,7.42
2018-01-31T03:39:40.157Z,7.42
2018-01-31T03:40:41.860Z,7.41
2018-01-31T03:41:40.906Z,7.41
2018-01-31T03:42:40.416Z,7.41
2018-01-31T03:43:40.404Z,7.42
2018-01-31T03:44:41.024Z,7.42
2018-01-31T03:45:41.044Z,7.41
2018-01-31T03:46:42.047Z,7.42
2018-01-31T03:47:40.648Z,7.41
2018-01-31T03:48:41.544Z,7.41
2018-01-31T03:49:41.588Z,7.4
2018-01-31T03:50:40.140Z,7.4
2018-01-31T03:51:40.578Z,7.42
2018-01-31T03:52:40.716Z,7.42
2018-01-31T03:53:40.477Z,7.42
2018-01-31T03:54:40.809Z,7.41
2018-01-31T03:55:40.461Z,7.42
2018-01-31T03:56:40.609Z,7.4
2018-01-31T03:57:41.458Z,7.41
2018-01-31T03:58:40.467Z,7.39
2018-01-31T03:59:40.023Z,7.38
2018-01-31T04:00:40.542Z,7.38
2018-01-31T04:01:40.777Z,7.39
2018-01-31T04:02:40.933Z,7.39
2018-01-31T04:03:42.579Z,7.39
2018-01-31T04:04:41.553Z,7.4
2018-01-31T04:05:41.873Z,7.4
2018-01-31T04:06:40.858Z,7.39
2018-01-31T04:07:41.031Z,7.38
2018-01-31T04:08:41.771Z,7.41
2018-01-31T04:09:41.698Z,7.38
2018-01-31T04:10:41.410Z,7.37
2018-01-31T04:11:42.382Z,7.4
2018-01-31T04:12:41.287Z,7.4
2018-01-31T04:13:41.773Z,7.38
2018-01-31T04:14:40.459Z,7.39
2018-01-31T04:15:40.951Z,7.38
2018-01-31T04:16:40.571Z,7.37
2018-01-31T04:17:41.736Z,7.37
2018-01-31T04:18:40.694Z,7.4
2018-01-31T04:19:40.280Z,7.37
2018-01-31T04:20:40.766Z,7.38
2018-01-31T04:21:40.520Z,7.37
2018-01-31T04:22:41.364Z,7.33
2018-01-31T04:23:40.864Z,7.37
2018-01-31T04:24:40.574Z,7.35
2018-01-31T04:25:41.789Z,7.37
2018-01-31T04:26:42.009Z,7.36
2018-01-31T04:27:40.560Z,7.35
2018-01-31T04:28:40.712Z,7.36
2018-01-31T04:29:42.108Z,7.36
2018-01-31T04:30:41.872Z,7.36
2018-01-31T04:31:41.679Z,7.34
2018-01-31T04:32:42.659Z,7.34
2018-01-31T04:33:41.330Z,7.34
2018-01-31T04:34:41.744Z,7.35
2018-01-31T04:35:40.357Z,7.34
2018-01-31T04:36:41.338Z,7.33
2018-01-31T04:37:40.937Z,7.34
2018-01-31T04:38:40.566Z,7.34
2018-01-31T04:39:40.193Z,7.34
2018-01-31T04:40:41.819Z,7.34
2018-01-31T04:41:40.288Z,7.33
2018-01-31T04:42:41.520Z,7.33
2018-01-31T04:43:41.988Z,7.35
2018-01-31T04:44:42.065Z,7.33
2018-01-31T04:45:42.541Z,7.34
2018-01-31T04:46:40.498Z,7.32
2018-01-31T04:47:41.920Z,7.3
2018-01-31T04:48:40.388Z,7.31
2018-01-31T04:49:40.547Z,7.3
2018-01-31T04:50:40.418Z,7.29
2018-01-31T04:51:40.035Z,7.29
2018-01-31T04:52:40.021Z,7.29
2018-01-31T04:53:39.985Z,7.28
2018-01-31T04:54:40.237Z,7.29
2018-01-31T04:55:40.230Z,7.28
2018-01-31T04:56:40.356Z,7.27
2018-01-31T04:57:40.235Z,7.3
2018-01-31T04:58:40.113Z,7.28
2018-01-31T04:59:40.260Z,7.27
2018-01-31T05:00:40.152Z,7.27
2018-01-31T05:01:40.333Z,7.26
2018-01-31T05:02:40.315Z,7.27
2018-01-31T05:03:40.013Z,7.29
2018-01-31T05:04:40.224Z,7.27
2018-01-31T05:05:40.336Z,7.26
2018-01-31T05:06:40.229Z,7.26
2018-01-31T05:07:40.076Z,7.26
2018-01-31T05:08:40.137Z,7.29
2018-01-31T05:09:40.368Z,7.26
2018-01-31T05:10:40.398Z,7.26
2018-01-31T05:11:40.061Z,7.23
2018-01-31T05:12:40.145Z,7.22
2018-01-31T05:13:40.185Z,7.25
2018-01-31T05:14:40.121Z,7.25
2018-01-31T05:15:40.304Z,7.25
2018-01-31T05:16:40.071Z,7.25
2018-01-31T05:17:40.399Z,7.23
2018-01-31T05:18:40.333Z,7.24
2018-01-31T05:19:40.316Z,7.23
2018-01-31T05:20:40.592Z,7.21
2018-01-31T05:21:40.175Z,7.24
2018-01-31T05:22:40.143Z,7.22
2018-01-31T05:23:40.857Z,7.22
2018-01-31T05:24:40.363Z,7.22
2018-01-31T05:25:40.164Z,7.22
2018-01-31T05:26:40.009Z,7.21
2018-01-31T05:27:40.396Z,7.18
2018-01-31T05:28:40.286Z,7.2
2018-01-31T05:29:40.315Z,7.19
2018-01-31T05:30:40.216Z,7.19
2018-01-31T05:31:40.254Z,7.2
2018-01-31T05:32:40.288Z,7.21
2018-01-31T05:33:40.412Z,7.22
2018-01-31T05:34:40.214Z,7.21
2018-01-31T05:35:40.362Z,7.22
2018-01-31T05:36:40.334Z,7.18
2018-01-31T05:37:40.430Z,7.18
2018-01-31T05:38:40.370Z,7.18
2018-01-31T05:39:40.474Z,7.18
2018-01-31T05:40:40.195Z,7.19
2018-01-31T05:41:40.254Z,7.14
2018-01-31T05:42:40.078Z,7.13
2018-01-31T05:43:40.415Z,7.11
2018-01-31T05:44:40.354Z,7.12
2018-01-31T05:45:40.234Z,7.12
2018-01-31T05:46:40.186Z,7.12
2018-01-31T05:47:40.027Z,7.09
2018-01-31T05:48:40.299Z,7.11
2018-01-31T05:49:40.047Z,7.1
2018-01-31T05:50:40.467Z,7.08
2018-01-31T05:51:40.077Z,7.08
2018-01-31T05:52:40.215Z,7.09
2018-01-31T05:53:40.335Z,7.09
2018-01-31T05:54:40.474Z,7.1
2018-01-31T05:55:40.305Z,7.08
2018-01-31T05:56:40.268Z,7.09
2018-01-31T05:57:40.146Z,7.11
2018-01-31T05:58:40.140Z,7.09
2018-01-31T05:59:40.343Z,7.13
2018-01-31T06:00:40.332Z,7.11
2018-01-31T06:01:40.340Z,7.11
2018-01-31T06:02:40.424Z,7.11
2018-01-31T06:03:40.251Z,7.11
2018-01-31T06:04:40.424Z,7.1
2018-01-31T06:05:40.262Z,7.08
2018-01-31T06:06:40.405Z,7.09
2018-01-31T06:07:40.409Z,7.09
2018-01-31T06:08:40.131Z,7.09
2018-01-31T06:09:40.572Z,7.08
2018-01-31T06:10:40.283Z,7.09
2018-01-31T06:11:40.323Z,7.07
2018-01-31T06:12:40.345Z,7.06
2018-01-31T06:13:40.419Z,7.04
2018-01-31T06:14:40.392Z,7.05
2018-01-31T06:15:40.225Z,7.04
2018-01-31T06:16:40.404Z,7.06
2018-01-31T06:17:40.434Z,7.07
2018-01-31T06:18:40.442Z,7.05
2018-01-31T06:19:40.132Z,7.07
2018-01-31T06:20:40.482Z,7.07
2018-01-31T06:21:40.255Z,7.07
2018-01-31T06:22:40.104Z,7.12
2018-01-31T06:23:40.213Z,7.09
2018-01-31T06:24:40.370Z,7.09
2018-01-31T06:25:40.365Z,7.09
2018-01-31T06:26:40.323Z,7.1
2018-01-31T06:27:40.141Z,7.11
2018-01-31T06:28:40.205Z,7.11
2018-01-31T06:29:40.460Z,7.1
2018-01-31T06:30:40.323Z,7.1
2018-01-31T06:31:40.118Z,7.12
2018-01-31T06:32:40.116Z,7.12
2018-01-31T06:33:40.283Z,7.12
2018-01-31T06:34:40.436Z,7.1
2018-01-31T06:35:40.341Z,7.09
2018-01-31T06:36:40.257Z,7.11
2018-01-31T06:37:40.346Z,7.11
2018-01-31T06:38:40.332Z,7.1
2018-01-31T06:39:40.492Z,7.07
2018-01-31T06:40:40.439Z,7.07
2018-01-31T06:41:41.066Z,7.1
2018-01-31T06:42:40.370Z,7.1
2018-01-31T06:43:40.434Z,7.12
2018-01-31T06:44:40.827Z,7.12
2018-01-31T06:45:40.504Z,7.11
2018-01-31T06:46:40.525Z,7.1
2018-01-31T06:47:40.298Z,7.12
2018-01-31T06:48:40.312Z,7.12
2018-01-31T06:49:40.422Z,7.1
2018-01-31T06:50:40.311Z,7.11
2018-01-31T06:51:40.264Z,7.12
2018-01-31T06:52:40.413Z,7.11
2018-01-31T06:53:40.231Z,7.11
2018-01-31T06:54:40.509Z,7.09
2018-01-31T06:55:40.244Z,7.11
2018-01-31T06:56:40.490Z,7.1
2018-01-31T06:57:40.180Z,7.1
2018-01-31T06:58:40.271Z,7.09
2018-01-31T06:59:40.404Z,7.12
2018-01-31T07:00:40.345Z,7.12
2018-01-31T07:01:40.217Z,7.12
2018-01-31T07:02:40.518Z,7.1
2018-01-31T07:03:40.310Z,7.1
2018-01-31T07:04:40.159Z,7.11
2018-01-31T07:05:40.641Z,7.11
2018-01-31T07:06:40.623Z,7.11
2018-01-31T07:07:41.151Z,7.13
2018-01-31T07:08:40.950Z,7.12
2018-01-31T07:09:40.977Z,7.13
2018-01-31T07:10:40.407Z,7.14
2018-01-31T07:11:40.384Z,7.11
2018-01-31T07:12:40.383Z,7.13
2018-01-31T07:13:40.765Z,7.13
2018-01-31T07:14:40.703Z,7.11
2018-01-31T07:15:40.466Z,7.14
2018-01-31T07:16:40.512Z,7.11
2018-01-31T07:17:40.496Z,7.13
2018-01-31T07:18:40.503Z,7.14
2018-01-31T07:19:40.636Z,7.12
2018-01-31T07:20:40.274Z,7.14
2018-01-31T07:21:40.456Z,7.15
2018-01-31T07:22:40.414Z,7.12
2018-01-31T07:23:40.214Z,7.14
2018-01-31T07:24:40.818Z,7.15
2018-01-31T07:25:40.268Z,7.15
2018-01-31T07:26:40.468Z,7.14
2018-01-31T07:27:40.906Z,7.13
2018-01-31T07:28:40.556Z,7.12
2018-01-31T07:29:40.983Z,7.15
2018-01-31T07:30:41.139Z,7.16
2018-01-31T07:31:40.173Z,7.13
2018-01-31T07:32:40.485Z,7.14
2018-01-31T07:33:40.436Z,7.16
2018-01-31T07:34:40.557Z,7.16
2018-01-31T07:35:40.465Z,7.16
2018-01-31T07:36:40.507Z,7.17
2018-01-31T07:37:40.428Z,7.19
2018-01-31T07:38:41.217Z,7.18
2018-01-31T07:39:40.303Z,7.15
2018-01-31T07:40:40.474Z,7.18
2018-01-31T07:41:40.516Z,7.17
2018-01-31T07:42:40.451Z,7.18
2018-01-31T07:43:40.678Z,7.18
2018-01-31T07:44:40.654Z,7.19
2018-01-31T07:45:40.391Z,7.19
2018-01-31T07:46:40.493Z,7.19
2018-01-31T07:47:40.613Z,7.19
2018-01-31T07:48:41.182Z,7.17
2018-01-31T07:49:40.515Z,7.18
2018-01-31T07:50:40.441Z,7.19
2018-01-31T07:51:40.433Z,7.18
2018-01-31T07:52:40.592Z,7.17
2018-01-31T07:53:40.434Z,7.18
2018-01-31T07:54:40.492Z,7.19
2018-01-31T07:55:40.487Z,7.19
2018-01-31T07:56:40.566Z,7.21
2018-01-31T07:57:40.378Z,7.2
2018-01-31T07:58:40.572Z,7.22
2018-01-31T07:59:40.629Z,7.23
2018-01-31T08:00:40.571Z,7.23
2018-01-31T08:01:41.501Z,7.22
2018-01-31T08:02:40.728Z,7.21
2018-01-31T08:03:40.591Z,7.22
2018-01-31T08:04:40.549Z,7.22
2018-01-31T08:05:40.523Z,7.21
2018-01-31T08:06:40.490Z,7.22
2018-01-31T08:07:40.497Z,7.21
2018-01-31T08:08:40.542Z,7.21
2018-01-31T08:09:40.388Z,7.18
2018-01-31T08:10:40.508Z,7.21
2018-01-31T08:11:40.569Z,7.21
2018-01-31T08:12:40.359Z,7.21
2018-01-31T08:13:40.705Z,7.21
2018-01-31T08:14:40.378Z,7.2
2018-01-31T08:15:39.456Z,7.21
2018-01-31T08:16:39.567Z,7.22
2018-01-31T08:17:39.650Z,7.2
2018-01-31T08:18:39.625Z,7.19
2018-01-31T08:19:39.778Z,7.21
2018-01-31T08:20:39.631Z,7.2
2018-01-31T08:21:39.507Z,7.21
2018-01-31T08:22:39.638Z,7.18
2018-01-31T08:23:39.616Z,7.21
2018-01-31T08:24:39.738Z,7.2
2018-01-31T08:25:39.489Z,7.22
2018-01-31T08:26:39.495Z,7.21
2018-01-31T08:27:40.353Z,7.24
2018-01-31T08:28:39.523Z,7.22
2018-01-31T08:29:39.614Z,7.21
2018-01-31T08:30:39.431Z,7.2
2018-01-31T08:31:39.708Z,7.24
2018-01-31T08:32:39.445Z,7.25
2018-01-31T08:33:39.654Z,7.25
2018-01-31T08:34:39.915Z,7.23
2018-01-31T08:35:39.547Z,7.24
2018-01-31T08:36:39.602Z,7.23
2018-01-31T08:37:39.459Z,7.23
2018-01-31T08:38:39.362Z,7.24
2018-01-31T08:39:39.930Z,7.23
2018-01-31T08:40:39.714Z,7.24
2018-01-31T08:41:39.601Z,7.2
2018-01-31T08:42:39.761Z,7.21
2018-01-31T08:43:39.701Z,7.24
2018-01-31T08:44:39.669Z,7.24
2018-01-31T08:45:40.056Z,7.25
2018-01-31T08:46:39.750Z,7.25
2018-01-31T08:47:39.859Z,7.26
2018-01-31T08:48:39.808Z,7.26
2018-01-31T08:49:39.834Z,7.25
2018-01-31T08:50:39.803Z,7.28
2018-01-31T08:51:39.896Z,7.25
2018-01-31T08:52:39.845Z,7.25
2018-01-31T08:53:40.024Z,7.26
2018-01-31T08:54:39.981Z,7.27
2018-01-31T08:55:39.935Z,7.25
2018-01-31T08:56:39.959Z,7.24
2018-01-31T08:57:40.348Z,7.26
2018-01-31T08:58:39.862Z,7.26
2018-01-31T08:59:39.919Z,7.26
2018-01-31T09:00:39.985Z,7.25
2018-01-31T09:01:39.900Z,7.26
2018-01-31T09:02:39.992Z,7.26
2018-01-31T09:03:39.960Z,7.24
2018-01-31T09:04:39.691Z,7.26
2018-01-31T09:05:39.737Z,7.28
2018-01-31T09:06:39.880Z,7.3
2018-01-31T09:07:40.018Z,7.29
2018-01-31T09:08:39.856Z,7.31
2018-01-31T09:09:39.657Z,7.28
2018-01-31T09:10:39.994Z,7.28
2018-01-31T09:11:39.744Z,7.3
2018-01-31T09:12:40.715Z,7.31
2018-01-31T09:13:39.914Z,7.3
2018-01-31T09:14:39.910Z,7.29
2018-01-31T09:15:40.016Z,7.31
2018-01-31T09:16:40.065Z,7.32
2018-01-31T09:17:39.982Z,7.34
2018-01-31T09:18:39.824Z,7.32
2018-01-31T09:19:40.005Z,7.32
2018-01-31T09:20:39.738Z,7.35
2018-01-31T09:21:40.305Z,7.35
2018-01-31T09:22:39.780Z,7.31
2018-01-31T09:23:39.893Z,7.33
2018-01-31T09:24:39.975Z,7.32
2018-01-31T09:25:40.050Z,7.35
2018-01-31T09:26:39.910Z,7.39
2018-01-31T09:27:40.065Z,7.36
2018-01-31T09:28:39.914Z,7.38
2018-01-31T09:29:39.965Z,7.35
2018-01-31T09:30:39.907Z,7.36
2018-01-31T09:31:40.015Z,7.37
2018-01-31T09:32:39.954Z,7.41
2018-01-31T09:33:39.811Z,7.35
2018-01-31T09:34:40.039Z,7.33
2018-01-31T09:35:39.961Z,7.38
2018-01-31T09:36:39.778Z,7.4
2018-01-31T09:37:40.124Z,7.38
2018-01-31T09:38:40.074Z,7.38
2018-01-31T09:39:39.843Z,7.35
2018-01-31T09:40:39.905Z,7.33
2018-01-31T09:41:40.047Z,7.36
2018-01-31T09:42:39.765Z,7.37
2018-01-31T09:43:39.895Z,7.33
2018-01-31T09:44:39.859Z,7.33
2018-01-31T09:45:40.230Z,7.3
2018-01-31T09:46:40.094Z,7.37
2018-01-31T09:47:39.956Z,7.35
2018-01-31T09:48:40.119Z,7.36
2018-01-31T09:49:39.985Z,7.41
2018-01-31T09:50:40.079Z,7.42
2018-01-31T09:51:39.743Z,7.38
2018-01-31T09:52:39.977Z,7.4
2018-01-31T09:53:39.803Z,7.36
2018-01-31T09:54:39.810Z,7.41
2018-01-31T09:55:40.269Z,7.42
2018-01-31T09:56:40.318Z,7.46
2018-01-31T09:57:40.115Z,7.43
2018-01-31T09:58:39.877Z,7.49
2018-01-31T09:59:40.852Z,7.49
2018-01-31T10:00:39.911Z,7.51
2018-01-31T10:01:40.326Z,7.54
2018-01-31T10:02:39.970Z,7.46
2018-01-31T10:03:39.908Z,7.49
2018-01-31T10:04:39.893Z,7.44
2018-01-31T10:05:39.817Z,7.41
2018-01-31T10:06:41.361Z,7.45
2018-01-31T10:07:39.834Z,7.48
2018-01-31T10:08:40.053Z,7.49
2018-01-31T10:09:39.975Z,7.46
2018-01-31T10:10:39.816Z,7.47
2018-01-31T10:11:40.032Z,7.46
2018-01-31T10:12:40.071Z,7.49
2018-01-31T10:13:40.056Z,7.48
2018-01-31T10:14:40.131Z,7.45
2018-01-31T10:15:40.096Z,7.46
2018-01-31T10:16:39.874Z,7.42
2018-01-31T10:17:39.777Z,7.44
2018-01-31T10:18:39.806Z,7.49
2018-01-31T10:19:40.282Z,7.49
2018-01-31T10:20:39.918Z,7.5
2018-01-31T10:21:40.014Z,7.48
2018-01-31T10:22:40.208Z,7.49
2018-01-31T10:23:40.273Z,7.48
2018-01-31T10:24:40.701Z,7.49
2018-01-31T10:25:39.939Z,7.49
2018-01-31T10:26:40.194Z,7.46
2018-01-31T10:27:40.268Z,7.5
2018-01-31T10:28:40.180Z,7.44
2018-01-31T10:29:40.381Z,7.48
2018-01-31T10:30:39.980Z,7.47
2018-01-31T10:31:40.056Z,7.43
2018-01-31T10:32:39.857Z,7.45
2018-01-31T10:33:39.939Z,7.45
2018-01-31T10:34:39.809Z,7.47
2018-01-31T10:35:39.889Z,7.41
2018-01-31T10:36:39.908Z,7.43
2018-01-31T10:37:40.213Z,7.4
2018-01-31T10:38:39.909Z,7.45
2018-01-31T10:39:40.184Z,7.47
2018-01-31T10:40:40.037Z,7.45
2018-01-31T10:41:40.104Z,7.44
2018-01-31T10:42:40.343Z,7.43
2018-01-31T10:43:40.361Z,7.4
2018-01-31T10:44:40.154Z,7.44
2018-01-31T10:45:40.142Z,7.39
2018-01-31T10:46:40.022Z,7.4
2018-01-31T10:47:40.016Z,7.41
2018-01-31T10:48:40.082Z,7.42
2018-01-31T10:49:40.153Z,7.42
2018-01-31T10:50:40.140Z,7.47
2018-01-31T10:51:39.969Z,7.48
2018-01-31T10:52:39.944Z,7.52
2018-01-31T10:57:40.153Z,7.58
2018-01-31T10:58:40.259Z,7.58
2018-01-31T10:59:40.406Z,7.58
2018-01-31T11:00:40.028Z,7.6
2018-01-31T11:01:40.053Z,7.55
2018-01-31T11:02:40.254Z,7.52
2018-01-31T11:03:40.165Z,7.55
2018-01-31T11:04:40.213Z,7.59
2018-01-31T11:05:40.193Z,7.63
2018-01-31T11:06:40.263Z,7.61
2018-01-31T11:07:40.243Z,7.6
2018-01-31T11:08:41.023Z,7.6
2018-01-31T11:09:40.285Z,7.52
2018-01-31T11:10:40.059Z,7.54
2018-01-31T11:11:40.380Z,7.51
2018-01-31T11:12:40.179Z,7.46
2018-01-31T11:13:40.263Z,7.55
2018-01-31T11:14:40.238Z,7.56
2018-01-31T11:15:40.583Z,7.51
2018-01-31T11:16:40.273Z,7.53
2018-01-31T11:17:40.536Z,7.5
2018-01-31T11:18:40.552Z,7.51
2018-01-31T11:19:40.348Z,7.54
2018-01-31T11:20:40.299Z,7.5
2018-01-31T11:21:40.278Z,7.49
2018-01-31T11:22:40.664Z,7.48
2018-01-31T11:23:40.290Z,7.44
2018-01-31T11:24:40.244Z,7.46
2018-01-31T11:25:40.212Z,7.48
2018-01-31T11:26:40.451Z,7.42
2018-01-31T11:27:40.573Z,7.43
2018-01-31T11:28:40.336Z,7.43
2018-01-31T11:29:40.804Z,7.46
2018-01-31T11:30:40.586Z,7.46
2018-01-31T11:31:40.478Z,7.5
2018-01-31T11:32:40.519Z,7.44
2018-01-31T11:33:40.434Z,7.42
2018-01-31T11:34:40.582Z,7.45
2018-01-31T11:35:40.377Z,7.41
2018-01-31T11:36:40.587Z,7.46
2018-01-31T11:37:40.262Z,7.48
2018-01-31T11:38:40.558Z,7.44
2018-01-31T11:39:40.427Z,7.45
2018-01-31T11:40:40.520Z,7.38
2018-01-31T11:41:40.442Z,7.42
2018-01-31T11:42:39.489Z,7.36
2018-01-31T11:43:40.532Z,7.33
2018-01-31T11:44:40.510Z,7.35
2018-01-31T11:45:40.525Z,7.37
2018-01-31T11:46:40.341Z,7.35
2018-01-31T11:47:40.628Z,7.39
2018-01-31T11:48:40.556Z,7.39
2018-01-31T11:49:40.405Z,7.36
2018-01-31T11:50:40.365Z,7.38
2018-01-31T11:51:40.499Z,7.38
2018-01-31T11:52:40.721Z,7.31
2018-01-31T11:53:40.445Z,7.28
2018-01-31T11:54:40.735Z,7.34
2018-01-31T11:55:40.446Z,7.38
2018-01-31T11:56:40.637Z,7.4
2018-01-31T11:57:40.755Z,7.42
2018-01-31T11:58:40.482Z,7.43
2018-01-31T11:59:42.295Z,7.45
2018-01-31T12:00:40.507Z,7.49
2018-01-31T12:01:40.258Z,7.4
2018-01-31T12:02:40.310Z,7.38
2018-01-31T12:03:40.387Z,7.38
2018-01-31T12:04:40.576Z,7.31
2018-01-31T12:05:40.338Z,7.33
2018-01-31T12:06:40.236Z,7.44
2018-01-31T12:07:40.323Z,7.4
2018-01-31T12:08:40.540Z,7.42
2018-01-31T12:09:40.517Z,7.38
2018-01-31T12:10:40.390Z,7.35
2018-01-31T12:11:40.361Z,7.33
2018-01-31T12:12:40.617Z,7.32
2018-01-31T12:13:40.548Z,7.3
2018-01-31T12:14:40.466Z,7.28
2018-01-31T12:15:40.733Z,7.32
2018-01-31T12:16:39.805Z,7.26
2018-01-31T12:17:39.741Z,7.33
2018-01-31T12:18:39.660Z,7.3
2018-01-31T12:19:39.705Z,7.31
2018-01-31T12:20:39.635Z,7.29
2018-01-31T12:21:39.556Z,7.29
2018-01-31T12:22:39.482Z,7.3
2018-01-31T12:23:39.681Z,7.28
2018-01-31T12:24:39.836Z,7.32
2018-01-31T12:25:39.701Z,7.27
2018-01-31T12:26:39.736Z,7.31
2018-01-31T12:27:39.680Z,7.3
2018-01-31T12:28:39.824Z,7.34
2018-01-31T12:29:39.643Z,7.26
2018-01-31T12:30:39.670Z,7.28
2018-01-31T12:31:39.679Z,7.28
2018-01-31T12:32:40.391Z,7.32
2018-01-31T12:33:39.466Z,7.31
2018-01-31T12:34:39.732Z,7.31
2018-01-31T12:35:39.683Z,7.29
2018-01-31T12:36:39.435Z,7.26
2018-01-31T12:37:39.607Z,7.28
2018-01-31T12:38:39.757Z,7.27
2018-01-31T12:39:39.943Z,7.22
2018-01-31T12:40:39.588Z,7.2
2018-01-31T12:41:39.645Z,7.17
2018-01-31T12:42:39.569Z,7.25
2018-01-31T12:43:39.690Z,7.27
2018-01-31T12:44:39.949Z,7.25
2018-01-31T12:45:39.485Z,7.28
2018-01-31T12:46:39.969Z,7.27
2018-01-31T12:47:39.878Z,7.25
2018-01-31T12:48:39.577Z,7.27
2018-01-31T12:49:39.504Z,7.25
2018-01-31T12:50:40.511Z,7.22
2018-01-31T12:51:39.815Z,7.21
2018-01-31T12:52:39.786Z,7.26
2018-01-31T12:53:39.922Z,7.29
2018-01-31T12:54:39.979Z,7.26
2018-01-31T12:55:39.738Z,7.28
2018-01-31T12:56:39.729Z,7.28
2018-01-31T12:57:39.832Z,7.22
2018-01-31T12:58:40.070Z,7.21
2018-01-31T12:59:39.804Z,7.23
2018-01-31T13:00:39.705Z,7.28
2018-01-31T13:01:39.971Z,7.23
2018-01-31T13:02:39.847Z,7.24
2018-01-31T13:03:39.929Z,7.23
2018-01-31T13:04:39.882Z,7.24
2018-01-31T13:05:40.003Z,7.21
2018-01-31T13:06:39.605Z,7.21
2018-01-31T13:07:39.592Z,7.21
2018-01-31T13:08:39.955Z,7.24
2018-01-31T13:09:39.689Z,7.28
2018-01-31T13:10:39.817Z,7.24
2018-01-31T13:11:39.636Z,7.22
2018-01-31T13:12:39.576Z,7.23
2018-01-31T13:13:39.615Z,7.25
2018-01-31T13:14:39.780Z,7.21
2018-01-31T13:15:39.630Z,7.23
2018-01-31T13:16:40.023Z,7.24
2018-01-31T13:17:40.207Z,7.26
2018-01-31T13:18:40.350Z,7.22
2018-01-31T13:19:40.544Z,7.2
2018-01-31T13:20:40.232Z,7.15
2018-01-31T13:21:40.190Z,7.17
2018-01-31T13:22:40.111Z,7.22
2018-01-31T13:23:40.069Z,7.15
2018-01-31T13:24:40.449Z,7.12
2018-01-31T13:25:41.343Z,7.12
2018-01-31T13:26:40.400Z,7.18
2018-01-31T13:27:40.307Z,7.17
2018-01-31T13:28:40.307Z,7.18
2018-01-31T13:29:40.108Z,7.14
2018-01-31T13:30:41.087Z,7.15
2018-01-31T13:31:40.215Z,7.22
2018-01-31T13:32:40.268Z,7.14
2018-01-31T13:33:40.345Z,7.16
2018-01-31T13:34:40.039Z,7.16
2018-01-31T13:35:40.155Z,7.11
2018-01-31T13:36:39.987Z,7.16
2018-01-31T13:37:40.260Z,7.12
2018-01-31T13:38:40.155Z,7.16
2018-01-31T13:39:39.978Z,7.18
2018-01-31T13:40:40.140Z,7.2
2018-01-31T13:41:40.196Z,7.17
2018-01-31T13:42:40.305Z,7.18
2018-01-31T13:43:40.392Z,7.12
2018-01-31T13:44:40.144Z,7.09
2018-01-31T13:45:40.123Z,7.15
2018-01-31T13:46:40.259Z,7.11
2018-01-31T13:47:40.356Z,7.12
2018-01-31T13:48:40.347Z,7.06
2018-01-31T13:49:40.345Z,7.07
2018-01-31T13:50:40.420Z,7.08
2018-01-31T13:51:40.231Z,7.08
2018-01-31T13:52:40.377Z,7.09
2018-01-31T13:53:40.277Z,7.06
2018-01-31T13:54:40.160Z,7.01
2018-01-31T13:55:40.561Z,7.07
2018-01-31T13:56:40.018Z,7.03
2018-01-31T13:57:40.430Z,7.01
2018-01-31T13:58:40.102Z,7.04
2018-01-31T13:59:40.316Z,7.09
2018-01-31T14:00:40.150Z,7.12
2018-01-31T14:01:40.258Z,7.13
2018-01-31T14:02:40.218Z,7.07
2018-01-31T14:03:40.227Z,7.08
2018-01-31T14:04:40.620Z,7
2018-01-31T14:05:40.285Z,7.02
2018-01-31T14:06:40.129Z,7.05
2018-01-31T14:07:40.158Z,7.07
2018-01-31T14:08:40.584Z,7.06
2018-01-31T14:09:39.998Z,7.09
2018-01-31T14:10:40.113Z,7.13
2018-01-31T14:11:40.350Z,7.11
2018-01-31T14:12:40.358Z,7.11
2018-01-31T14:13:40.125Z,7.1
2018-01-31T14:14:40.500Z,7.05
2018-01-31T14:15:40.352Z,7.05
2018-01-31T14:16:40.395Z,7.06
2018-01-31T14:17:40.321Z,7.07
2018-01-31T14:18:40.226Z,7.07
2018-01-31T14:19:40.413Z,7.07
2018-01-31T14:20:42.609Z,7.09
2018-01-31T14:21:42.695Z,7.04
2018-01-31T14:22:42.169Z,7.1
2018-01-31T14:23:43.620Z,7.09
2018-01-31T14:24:53.906Z,7.05
2018-01-31T14:25:48.368Z,7.05
2018-01-31T14:26:43.743Z,7.07
2018-01-31T14:27:40.111Z,7.08
2018-01-31T14:28:40.118Z,7.11
2018-01-31T14:29:40.318Z,7.13
2018-01-31T14:30:40.282Z,7.1
2018-01-31T14:31:40.502Z,7.13
2018-01-31T14:32:40.361Z,7.11
2018-01-31T14:33:40.293Z,7.1
2018-01-31T14:34:40.358Z,7.11
2018-01-31T14:35:40.453Z,7.14
2018-01-31T14:36:40.902Z,7.17
2018-01-31T14:37:43.586Z,7.14
2018-01-31T14:38:40.312Z,7.14
2018-01-31T14:39:40.439Z,7.11
2018-01-31T14:40:40.354Z,7.12
2018-01-31T14:41:40.416Z,7.15
2018-01-31T14:42:40.216Z,7.1
2018-01-31T14:43:40.116Z,7.13
2018-01-31T14:44:40.197Z,7.13
2018-01-31T14:45:40.250Z,7.16
2018-01-31T14:46:41.577Z,7.17
2018-01-31T14:47:40.816Z,7.12
2018-01-31T14:48:40.384Z,7.13
2018-01-31T14:49:41.107Z,7.14
2018-01-31T14:50:40.553Z,7.12
2018-01-31T14:51:40.571Z,7.12
2018-01-31T14:52:40.306Z,7.15
2018-01-31T14:53:40.677Z,7.12
2018-01-31T14:54:40.524Z,7.13
2018-01-31T14:55:40.707Z,7.15
2018-01-31T14:56:40.591Z,7.15
2018-01-31T14:57:40.562Z,7.14
2018-01-31T14:58:40.655Z,7.2
2018-01-31T14:59:40.344Z,7.18
2018-01-31T15:00:40.605Z,7.2
2018-01-31T15:01:40.544Z,7.2
2018-01-31T15:02:40.393Z,7.16
2018-01-31T15:03:40.351Z,7.17
2018-01-31T15:04:40.829Z,7.17
2018-01-31T15:05:40.650Z,7.17
2018-01-31T15:06:40.698Z,7.16
2018-01-31T15:07:40.454Z,7.18
2018-01-31T15:08:41.587Z,7.14
2018-01-31T15:09:40.351Z,7.18
2018-01-31T15:10:40.420Z,7.19
2018-01-31T15:11:41.019Z,7.17
2018-01-31T15:12:40.531Z,7.18
2018-01-31T15:13:40.467Z,7.19
2018-01-31T15:14:40.406Z,7.17
2018-01-31T15:15:40.592Z,7.2
2018-01-31T15:16:40.608Z,7.18
2018-01-31T15:17:39.883Z,7.19